Time;durP1;ratioP1;P1;durP2;ratioP2;P2;SDS_P1;SDS_P2;PMS_P1;PMS_P2;Temp;Humidity;BMP_temperature;BMP_pressure;BME280_temperature;BME280_humidity;BME280_pressure;Samples;Min_cycle;Max_cycle;Signal;HPM_P1;HPM_P2
2022/02/21 00:01:05;;;;;;;0.50;0.50;;;9.10;97.00;;;;;;5045106;28;20033;-33
2022/02/21 00:03:30;;;;;;;1.42;0.75;;;9.10;96.90;;;;;;5048515;28;20043;-33
2022/02/21 00:05:56;;;;;;;1.02;0.50;;;9.10;96.10;;;;;;5046224;28;20029;-33
2022/02/21 00:08:21;;;;;;;0.82;0.63;;;9.10;96.50;;;;;;5046321;28;20033;-33
2022/02/21 00:10:48;;;;;;;1.38;0.77;;;9.10;97.10;;;;;;5045900;28;20133;-34
2022/02/21 00:13:14;;;;;;;0.57;0.57;;;9.00;97.30;;;;;;5049944;28;20024;-33
2022/02/21 00:15:39;;;;;;;1.35;0.70;;;9.20;96.30;;;;;;5044626;28;20029;-33
2022/02/21 00:18:05;;;;;;;1.33;0.63;;;9.10;96.50;;;;;;5049044;28;20037;-33
2022/02/21 00:20:31;;;;;;;2.05;1.00;;;9.20;96.40;;;;;;5041439;28;20502;-33
2022/02/21 00:22:57;;;;;;;0.90;0.90;;;9.20;96.70;;;;;;5045812;28;20021;-33
2022/02/21 00:25:23;;;;;;;0.77;0.73;;;9.20;96.60;;;;;;5045098;28;20041;-33
2022/02/21 00:27:48;;;;;;;1.55;0.60;;;9.10;97.00;;;;;;5046616;28;20487;-35
2022/02/21 00:30:14;;;;;;;0.65;0.65;;;9.10;97.40;;;;;;5051101;28;20403;-33
2022/02/21 00:32:40;;;;;;;1.63;0.73;;;9.10;98.00;;;;;;5049068;28;20056;-33
2022/02/21 00:35:06;;;;;;;0.65;0.65;;;9.00;98.40;;;;;;5052922;28;20036;-34
2022/02/21 00:37:32;;;;;;;4.03;0.60;;;9.00;98.10;;;;;;5046376;28;20029;-33
2022/02/21 00:39:57;;;;;;;0.63;0.63;;;9.00;98.50;;;;;;5038194;28;20036;-33
2022/02/21 00:42:24;;;;;;;0.95;0.80;;;9.10;98.00;;;;;;5050014;28;20051;-53
2022/02/21 00:44:55;;;;;;;1.67;0.90;;;9.10;98.00;;;;;;5047604;28;20405;-33
2022/02/21 00:47:22;;;;;;;0.77;0.60;;;9.10;97.40;;;;;;5044963;28;20541;-33
2022/02/21 00:49:48;;;;;;;1.42;0.65;;;9.10;98.10;;;;;;5046274;28;20039;-33
2022/02/21 00:52:13;;;;;;;0.80;0.80;;;9.00;98.20;;;;;;5045784;28;20487;-33
2022/02/21 00:54:40;;;;;;;0.73;0.73;;;9.00;97.50;;;;;;5046129;28;20033;-33
2022/02/21 00:57:05;;;;;;;2.05;0.75;;;9.00;97.60;;;;;;5046618;28;20410;-33
2022/02/21 00:59:31;;;;;;;2.00;1.08;;;9.10;97.20;;;;;;5046957;28;20030;-34
2022/02/21 01:01:57;;;;;;;1.27;0.80;;;9.10;96.90;;;;;;5043408;28;20037;-34
2022/02/21 01:04:22;;;;;;;1.63;0.88;;;9.20;97.10;;;;;;5044459;28;20638;-33
2022/02/21 01:06:48;;;;;;;0.70;0.60;;;9.20;97.10;;;;;;5046328;28;20022;-33
2022/02/21 01:09:13;;;;;;;1.65;1.00;;;9.10;97.70;;;;;;5049372;28;20127;-33
2022/02/21 01:11:39;;;;;;;1.85;0.88;;;9.20;97.10;;;;;;5059529;28;20429;-34
2022/02/21 01:14:05;;;;;;;0.80;0.57;;;9.20;97.40;;;;;;5046361;28;20087;-33
2022/02/21 01:16:30;;;;;;;1.48;0.77;;;9.20;97.30;;;;;;5041175;28;20041;-33
2022/02/21 01:18:56;;;;;;;2.63;0.95;;;9.10;97.90;;;;;;5047652;28;20036;-33
2022/02/21 01:21:22;;;;;;;0.63;0.63;;;9.10;97.60;;;;;;5044832;28;20122;-33
2022/02/21 01:23:48;;;;;;;0.60;0.60;;;9.10;98.00;;;;;;5049226;28;20078;-33
2022/02/21 01:26:13;;;;;;;0.47;0.47;;;9.00;97.80;;;;;;5048079;28;20069;-31
2022/02/21 01:28:39;;;;;;;1.65;1.00;;;9.00;98.10;;;;;;5049210;28;20036;-31
2022/02/21 01:31:04;;;;;;;0.85;0.85;;;9.00;97.90;;;;;;5044139;28;21452;-34
2022/02/21 01:33:30;;;;;;;1.65;0.93;;;9.00;97.50;;;;;;5047001;28;20679;-33
2022/02/21 01:35:56;;;;;;;0.60;0.60;;;9.10;97.30;;;;;;5046189;28;20063;-33
2022/02/21 01:38:23;;;;;;;0.95;0.80;;;9.00;97.60;;;;;;5048481;28;20028;-33
2022/02/21 01:40:48;;;;;;;0.82;0.82;;;9.00;97.10;;;;;;5046156;28;20118;-33
2022/02/21 01:43:14;;;;;;;1.05;0.95;;;9.10;97.10;;;;;;5044680;28;20063;-31
2022/02/21 01:45:40;;;;;;;2.50;1.00;;;9.10;96.90;;;;;;5043513;28;20103;-31
2022/02/21 01:48:05;;;;;;;1.05;0.73;;;9.10;96.60;;;;;;5045662;28;20083;-34
2022/02/21 01:50:31;;;;;;;2.20;0.80;;;9.10;96.50;;;;;;5046278;28;20082;-33
2022/02/21 01:52:58;;;;;;;1.63;0.90;;;9.10;96.90;;;;;;5046780;28;20029;-33
2022/02/21 01:55:24;;;;;;;0.80;0.80;;;9.10;96.70;;;;;;5046262;28;20037;-34
2022/02/21 01:57:50;;;;;;;0.70;0.70;;;9.10;96.90;;;;;;5050790;28;20210;-33
2022/02/21 02:00:17;;;;;;;1.30;0.68;;;9.10;96.60;;;;;;5047012;28;20040;-33
2022/02/21 02:02:45;;;;;;;2.20;0.90;;;9.10;96.50;;;;;;5043694;28;20625;-33
2022/02/21 02:05:12;;;;;;;1.75;0.65;;;9.10;96.80;;;;;;5045495;28;20124;-33
2022/02/21 02:07:38;;;;;;;2.10;1.00;;;9.20;95.90;;;;;;5051574;28;20105;-33
2022/02/21 02:10:05;;;;;;;1.63;0.98;;;9.20;95.70;;;;;;5050661;28;20044;-33
2022/02/21 02:12:30;;;;;;;0.80;0.80;;;9.20;96.20;;;;;;5051974;28;20035;-33
2022/02/21 02:14:56;;;;;;;1.00;0.70;;;9.10;96.10;;;;;;5047559;28;20045;-33
2022/02/21 02:17:22;;;;;;;2.03;0.75;;;9.10;96.10;;;;;;5048365;28;20389;-33
2022/02/21 02:19:47;;;;;;;0.70;0.70;;;9.10;96.60;;;;;;5050244;28;20032;-33
2022/02/21 02:22:21;;;;;;;1.10;0.80;;;9.20;96.00;;;;;;5044877;28;20466;-33
2022/02/21 02:24:49;;;;;;;2.45;0.93;;;9.30;95.90;;;;;;5048166;28;20044;-33
2022/02/21 02:27:16;;;;;;;0.90;0.90;;;9.30;95.60;;;;;;5048138;28;20048;-33
2022/02/21 02:29:44;;;;;;;1.67;0.80;;;9.20;96.20;;;;;;5052539;28;20037;-33
2022/02/21 02:32:10;;;;;;;2.53;0.73;;;9.30;96.20;;;;;;5047199;28;20078;-33
2022/02/21 02:34:46;;;;;;;2.22;0.77;;;9.30;95.80;;;;;;5052282;28;20025;-33
2022/02/21 02:37:12;;;;;;;0.75;0.65;;;9.20;96.20;;;;;;5058165;28;20032;-34
2022/02/21 02:39:39;;;;;;;1.42;0.65;;;9.20;96.40;;;;;;5049108;28;20432;-33
2022/02/21 02:42:07;;;;;;;2.22;1.10;;;9.30;95.80;;;;;;5051648;28;20032;-33
2022/02/21 02:44:32;;;;;;;0.73;0.73;;;9.40;95.30;;;;;;5047725;28;20523;-33
2022/02/21 02:46:58;;;;;;;3.25;0.77;;;9.30;96.00;;;;;;5049447;28;20116;-33
2022/02/21 02:49:24;;;;;;;0.73;0.70;;;9.20;96.00;;;;;;5049443;28;20422;-33
2022/02/21 02:51:50;;;;;;;2.22;0.98;;;9.20;96.60;;;;;;5045056;28;20382;-33
2022/02/21 02:54:15;;;;;;;0.55;0.55;;;9.30;96.10;;;;;;5049308;28;20040;-34
2022/02/21 02:56:42;;;;;;;0.73;0.70;;;9.30;96.10;;;;;;5046083;28;20033;-33
2022/02/21 02:59:08;;;;;;;1.35;0.77;;;9.30;96.30;;;;;;5050409;28;20033;-31
2022/02/21 03:01:35;;;;;;;0.70;0.60;;;9.30;95.70;;;;;;5050644;28;20031;-32
2022/02/21 03:04:04;;;;;;;0.60;0.60;;;9.30;95.80;;;;;;5047023;28;20025;-32
2022/02/21 03:06:30;;;;;;;1.92;0.80;;;9.30;96.10;;;;;;5044221;28;20021;-31
2022/02/21 03:08:56;;;;;;;1.00;0.50;;;9.20;96.40;;;;;;5047613;28;20035;-31
2022/02/21 03:11:22;;;;;;;0.73;0.73;;;9.20;96.30;;;;;;5046772;28;20094;-31
2022/02/21 03:13:47;;;;;;;1.13;0.63;;;9.30;95.50;;;;;;5047342;28;20482;-31
2022/02/21 03:16:13;;;;;;;0.70;0.70;;;9.30;96.00;;;;;;5046623;28;20041;-30
2022/02/21 03:18:39;;;;;;;0.77;0.77;;;9.20;96.30;;;;;;5043994;28;20024;-31
2022/02/21 03:21:04;;;;;;;1.30;0.70;;;9.30;96.00;;;;;;5051414;28;20040;-31
2022/02/21 03:23:30;;;;;;;0.82;0.70;;;9.30;96.50;;;;;;5046230;28;20822;-31
2022/02/21 03:25:55;;;;;;;0.98;0.82;;;9.20;96.60;;;;;;5047485;28;20484;-31
2022/02/21 03:28:21;;;;;;;0.70;0.70;;;9.20;96.50;;;;;;5045627;28;20550;-32
2022/02/21 03:30:47;;;;;;;1.38;0.73;;;9.20;96.50;;;;;;5052828;28;20045;-31
2022/02/21 03:33:13;;;;;;;0.70;0.70;;;9.20;96.30;;;;;;5048601;28;20156;-31
2022/02/21 03:35:40;;;;;;;0.85;0.70;;;9.20;97.10;;;;;;5048040;28;20175;-31
2022/02/21 03:38:06;;;;;;;0.82;0.82;;;9.20;97.10;;;;;;5049805;28;20025;-31
2022/02/21 03:40:31;;;;;;;2.13;0.85;;;9.30;96.20;;;;;;5051578;28;20035;-31
2022/02/21 03:42:58;;;;;;;0.60;0.60;;;9.30;96.50;;;;;;5046047;28;20021;-31
2022/02/21 03:45:23;;;;;;;0.63;0.63;;;9.30;96.40;;;;;;5046175;28;20366;-31
2022/02/21 03:47:53;;;;;;;1.30;0.60;;;9.20;97.40;;;;;;5048512;28;20028;-32
2022/02/21 03:50:19;;;;;;;0.85;0.85;;;9.20;97.50;;;;;;5043867;28;20547;-31
2022/02/21 03:52:45;;;;;;;0.90;0.90;;;9.20;97.40;;;;;;5046042;28;20025;-31
2022/02/21 03:55:12;;;;;;;1.10;0.70;;;9.30;97.40;;;;;;5050233;28;20102;-32
2022/02/21 03:57:37;;;;;;;0.60;0.60;;;9.20;97.70;;;;;;5049415;28;20036;-31
2022/02/21 04:00:06;;;;;;;1.27;0.73;;;9.20;97.80;;;;;;5047002;28;20025;-31
2022/02/21 04:02:32;;;;;;;;;;;9.20;97.80;;;;;;5044385;28;20041;-31
2022/02/21 04:05:00;;;;;;;0.77;0.70;;;9.20;98.00;;;;;;5045038;28;20354;-31
2022/02/21 04:07:29;;;;;;;0.70;0.70;;;9.20;98.20;;;;;;5046137;28;20052;-31
2022/02/21 04:09:55;;;;;;;0.60;0.60;;;9.20;98.20;;;;;;5043774;28;20488;-31
2022/02/21 04:12:21;;;;;;;0.90;0.63;;;9.20;98.40;;;;;;5044724;28;20036;-31
2022/02/21 04:14:46;;;;;;;0.65;0.60;;;9.20;98.40;;;;;;5045243;28;20029;-31
2022/02/21 04:17:13;;;;;;;0.73;0.65;;;9.20;98.50;;;;;;5046247;28;20040;-31
2022/02/21 04:19:39;;;;;;;0.75;0.50;;;9.10;98.80;;;;;;5046777;28;20516;-32
2022/02/21 04:22:09;;;;;;;0.82;0.80;;;9.20;98.60;;;;;;5045597;28;20021;-31
2022/02/21 04:24:35;;;;;;;0.60;0.60;;;9.20;98.40;;;;;;5049759;28;20017;-31
2022/02/21 04:27:00;;;;;;;0.60;0.52;;;9.20;98.20;;;;;;5046550;28;20501;-32
2022/02/21 04:29:26;;;;;;;0.63;0.50;;;9.10;99.20;;;;;;5044055;28;20056;-31
2022/02/21 04:31:52;;;;;;;0.70;0.70;;;9.10;98.90;;;;;;5046267;28;20045;-31
2022/02/21 04:34:17;;;;;;;0.47;0.43;;;9.20;99.00;;;;;;5049281;28;20163;-32
2022/02/21 04:36:43;;;;;;;0.50;0.50;;;9.10;98.90;;;;;;5045157;28;21633;-30
2022/02/21 04:39:09;;;;;;;1.75;0.68;;;9.20;99.30;;;;;;5050455;28;20037;-31
2022/02/21 04:41:35;;;;;;;2.33;0.80;;;9.10;99.90;;;;;;5045865;28;20025;-31
2022/02/21 04:44:01;;;;;;;0.47;0.47;;;9.00;99.90;;;;;;5040561;28;20509;-31
2022/02/21 04:46:27;;;;;;;0.60;0.60;;;8.90;99.90;;;;;;5049705;28;20040;-31
2022/02/21 04:48:52;;;;;;;0.50;0.50;;;8.90;99.90;;;;;;5049568;28;20029;-32
2022/02/21 04:51:18;;;;;;;0.60;0.60;;;8.90;99.90;;;;;;5049386;28;20400;-31
2022/02/21 04:53:44;;;;;;;0.70;0.70;;;8.90;99.90;;;;;;5043626;28;20029;-31
2022/02/21 04:56:09;;;;;;;1.08;0.60;;;8.90;99.90;;;;;;5049548;28;20507;-31
2022/02/21 04:58:35;;;;;;;1.10;0.60;;;8.80;99.90;;;;;;5046866;28;20040;-31
2022/02/21 05:01:01;;;;;;;0.43;0.43;;;8.80;99.90;;;;;;5052517;28;20033;-31
2022/02/21 05:03:26;;;;;;;0.60;0.60;;;8.80;99.90;;;;;;5051120;28;20078;-31
2022/02/21 05:05:52;;;;;;;0.63;0.63;;;8.80;99.90;;;;;;5043754;28;20028;-33
2022/02/21 05:08:18;;;;;;;0.70;0.60;;;8.80;99.90;;;;;;5047015;28;20033;-31
2022/02/21 05:10:43;;;;;;;0.57;0.57;;;8.80;99.90;;;;;;5047623;28;20021;-31
2022/02/21 05:13:09;;;;;;;1.30;0.98;;;8.80;99.90;;;;;;5043467;28;20029;-31
2022/02/21 05:15:34;;;;;;;0.60;0.50;;;8.80;99.90;;;;;;5043027;28;20032;-31
2022/02/21 05:18:00;;;;;;;1.77;0.60;;;7.70;99.90;;;;;;5045176;28;20028;-31
2022/02/21 05:20:26;;;;;;;1.20;0.35;;;6.10;99.90;;;;;;5051965;28;20025;-31
2022/02/21 05:22:51;;;;;;;0.30;0.30;;;4.70;99.90;;;;;;5049303;28;20230;-32
2022/02/21 05:25:17;;;;;;;1.17;0.40;;;3.80;99.90;;;;;;5047785;28;20086;-31
2022/02/21 05:27:43;;;;;;;0.32;0.32;;;3.20;99.90;;;;;;5047567;28;20056;-31
2022/02/21 05:30:10;;;;;;;0.35;0.35;;;3.00;99.90;;;;;;5051246;28;20216;-31
2022/02/21 05:32:36;;;;;;;0.47;0.47;;;2.90;99.90;;;;;;5056112;28;20041;-31
2022/02/21 05:35:02;;;;;;;0.40;0.40;;;2.90;99.90;;;;;;5046822;28;20037;-32
2022/02/21 05:37:28;;;;;;;0.50;0.50;;;2.80;99.90;;;;;;5052127;28;20079;-31
2022/02/21 05:39:54;;;;;;;0.60;0.60;;;2.90;99.90;;;;;;5048737;28;20493;-31
2022/02/21 05:42:19;;;;;;;0.63;0.55;;;2.70;99.90;;;;;;5048029;28;20060;-31
2022/02/21 05:44:45;;;;;;;0.73;0.73;;;2.70;99.90;;;;;;5050949;28;20120;-31
2022/02/21 05:47:11;;;;;;;0.77;0.70;;;2.60;99.90;;;;;;5051845;28;20233;-31
2022/02/21 05:49:37;;;;;;;0.63;0.63;;;2.60;99.90;;;;;;5051688;28;20448;-31
2022/02/21 05:52:04;;;;;;;0.57;0.57;;;2.50;99.90;;;;;;5050232;28;20112;-32
2022/02/21 05:54:30;;;;;;;0.60;0.60;;;2.60;99.90;;;;;;5049911;28;20094;-31
2022/02/21 05:56:56;;;;;;;1.15;0.80;;;2.50;99.90;;;;;;5053129;28;20028;-31
2022/02/21 05:59:22;;;;;;;1.20;0.60;;;2.40;99.90;;;;;;5046781;28;20075;-31
2022/02/21 06:01:47;;;;;;;1.15;0.90;;;2.50;99.90;;;;;;5051031;28;20032;-31
2022/02/21 06:04:13;;;;;;;0.80;0.80;;;2.40;99.90;;;;;;5047786;28;20036;-32
2022/02/21 06:06:39;;;;;;;0.60;0.60;;;2.50;99.90;;;;;;5048160;28;20558;-31
2022/02/21 06:09:05;;;;;;;1.10;1.10;;;2.50;99.90;;;;;;5048476;28;20072;-31
2022/02/21 06:11:31;;;;;;;0.88;0.88;;;2.60;99.90;;;;;;5052424;28;20033;-32
2022/02/21 06:13:57;;;;;;;0.80;0.80;;;2.70;99.90;;;;;;5050728;28;20443;-31
2022/02/21 06:16:22;;;;;;;3.97;1.00;;;2.70;99.90;;;;;;5050358;28;20089;-31
2022/02/21 06:18:48;;;;;;;0.80;0.80;;;2.70;99.90;;;;;;5047360;28;20104;-32
2022/02/21 06:21:14;;;;;;;1.33;0.90;;;2.70;99.90;;;;;;5051685;28;20564;-31
2022/02/21 06:23:40;;;;;;;1.00;1.00;;;2.70;99.90;;;;;;5047662;28;20032;-31
2022/02/21 06:26:06;;;;;;;1.40;0.70;;;2.80;99.90;;;;;;5050979;28;20118;-31
2022/02/21 06:28:32;;;;;;;0.73;0.70;;;2.80;99.90;;;;;;5048190;28;20674;-32
2022/02/21 06:30:58;;;;;;;0.60;0.60;;;2.70;99.90;;;;;;5043999;28;20044;-32
2022/02/21 06:33:24;;;;;;;2.45;1.27;;;2.80;99.90;;;;;;5046157;28;20558;-31
2022/02/21 06:35:50;;;;;;;0.80;0.80;;;2.80;99.90;;;;;;5045513;28;20461;-32
2022/02/21 06:38:15;;;;;;;0.73;0.73;;;2.80;99.90;;;;;;5047087;28;20522;-32
2022/02/21 06:40:41;;;;;;;0.70;0.70;;;2.80;99.90;;;;;;5050501;28;20205;-31
2022/02/21 06:43:07;;;;;;;0.63;0.63;;;2.80;99.90;;;;;;5044669;28;20047;-31
2022/02/21 06:45:33;;;;;;;2.05;1.27;;;2.80;99.90;;;;;;5047108;28;20029;-32
2022/02/21 06:47:58;;;;;;;0.70;0.70;;;2.80;99.90;;;;;;5052555;28;20067;-31
2022/02/21 06:50:26;;;;;;;0.80;0.68;;;2.90;99.90;;;;;;5048025;28;20371;-31
2022/02/21 06:52:52;;;;;;;0.63;0.63;;;2.90;99.90;;;;;;5053993;28;20087;-32
2022/02/21 06:55:18;;;;;;;0.82;0.82;;;2.90;99.90;;;;;;5047456;28;20064;-31
2022/02/21 06:57:46;;;;;;;0.70;0.70;;;2.80;99.90;;;;;;5049319;28;20025;-31
2022/02/21 07:00:13;;;;;;;0.70;0.70;;;2.90;99.90;;;;;;5043861;28;20029;-31
2022/02/21 07:02:39;;;;;;;1.10;1.10;;;2.90;99.90;;;;;;5045047;28;20048;-30
2022/02/21 07:05:05;;;;;;;3.50;0.80;;;2.90;99.90;;;;;;5046707;28;20036;-32
2022/02/21 07:07:31;;;;;;;1.58;0.90;;;2.90;99.90;;;;;;5048264;28;20024;-32
2022/02/21 07:09:57;;;;;;;1.42;0.90;;;3.00;99.90;;;;;;5052094;28;20029;-32
2022/02/21 07:12:23;;;;;;;0.77;0.77;;;2.90;99.90;;;;;;5047534;28;20035;-30
2022/02/21 07:14:49;;;;;;;2.38;0.75;;;3.00;99.90;;;;;;5046653;28;20032;-33
2022/02/21 07:17:15;;;;;;;1.38;1.33;;;3.00;99.90;;;;;;5045559;28;20036;-32
2022/02/21 07:19:41;;;;;;;1.70;0.90;;;3.10;99.90;;;;;;5048071;28;20079;-32
2022/02/21 07:22:06;;;;;;;0.98;0.98;;;3.10;99.90;;;;;;5051203;28;20025;-32
2022/02/21 07:24:32;;;;;;;1.50;1.05;;;3.00;99.90;;;;;;5048371;28;20482;-32
2022/02/21 07:27:00;;;;;;;0.90;0.90;;;3.00;99.90;;;;;;5050870;28;20037;-32
2022/02/21 07:29:26;;;;;;;0.90;0.90;;;3.00;99.90;;;;;;5047474;28;20385;-32
2022/02/21 07:31:52;;;;;;;2.78;1.00;;;3.10;99.90;;;;;;5051106;28;20040;-33
2022/02/21 07:34:18;;;;;;;3.55;0.80;;;3.10;99.90;;;;;;5047881;28;20029;-33
2022/02/21 07:36:44;;;;;;;1.17;1.00;;;3.10;99.90;;;;;;5048324;28;21176;-33
2022/02/21 07:39:10;;;;;;;1.05;1.05;;;3.10;99.90;;;;;;5047629;28;20032;-33
2022/02/21 07:41:35;;;;;;;1.00;1.00;;;3.10;99.90;;;;;;5049489;28;20599;-34
2022/02/21 07:44:01;;;;;;;0.85;0.80;;;3.10;99.90;;;;;;5052982;28;20032;-34
2022/02/21 07:46:27;;;;;;;2.40;1.17;;;3.10;99.90;;;;;;5053488;28;20017;-33
2022/02/21 07:48:53;;;;;;;2.15;1.13;;;3.10;99.90;;;;;;5050731;28;20411;-32
2022/02/21 07:51:18;;;;;;;4.30;0.80;;;3.10;99.90;;;;;;5044992;28;20503;-32
2022/02/21 07:53:44;;;;;;;2.17;1.00;;;3.10;99.90;;;;;;5049745;28;20029;-33
2022/02/21 07:56:10;;;;;;;0.77;0.77;;;3.10;99.90;;;;;;5048178;28;20386;-32
2022/02/21 07:58:36;;;;;;;3.28;0.90;;;3.20;99.90;;;;;;5048597;28;20017;-33
2022/02/21 08:01:02;;;;;;;0.73;0.73;;;3.20;99.90;;;;;;5052189;28;20144;-32
2022/02/21 08:03:27;;;;;;;0.60;0.60;;;3.30;99.90;;;;;;5050020;28;20032;-32
2022/02/21 08:05:57;;;;;;;2.28;1.10;;;3.20;99.90;;;;;;5049278;28;20498;-33
2022/02/21 08:08:22;;;;;;;2.05;0.80;;;3.30;99.90;;;;;;5046439;28;20032;-33
2022/02/21 08:10:48;;;;;;;0.85;0.85;;;3.20;99.90;;;;;;5049936;28;20047;-33
2022/02/21 08:13:13;;;;;;;0.80;0.80;;;3.30;99.90;;;;;;5049279;28;20029;-33
2022/02/21 08:15:39;;;;;;;0.80;0.80;;;3.30;99.90;;;;;;5047650;28;20477;-33
2022/02/21 08:18:05;;;;;;;2.30;0.70;;;3.30;99.90;;;;;;5045883;28;20090;-33
2022/02/21 08:20:30;;;;;;;1.20;1.00;;;3.30;99.90;;;;;;5055640;28;20107;-33
2022/02/21 08:22:57;;;;;;;1.13;0.80;;;3.30;99.90;;;;;;5048727;28;20021;-34
2022/02/21 08:25:23;;;;;;;0.70;0.70;;;3.30;99.90;;;;;;5051555;28;20455;-33
2022/02/21 08:27:51;;;;;;;1.08;0.80;;;3.40;99.90;;;;;;5047992;28;20077;-33
2022/02/21 08:30:22;;;;;;;2.00;0.68;;;3.40;99.90;;;;;;5048714;28;20024;-33
2022/02/21 08:32:48;;;;;;;2.72;0.70;;;3.40;99.90;;;;;;5049374;28;20081;-33
2022/02/21 08:35:15;;;;;;;4.97;1.33;;;3.50;99.90;;;;;;5047094;28;20035;-33
2022/02/21 08:37:41;;;;;;;1.85;0.93;;;3.50;99.90;;;;;;5047945;28;20072;-34
2022/02/21 08:40:10;;;;;;;2.85;1.00;;;3.60;99.90;;;;;;5044281;28;20112;-33
2022/02/21 08:42:36;;;;;;;1.83;1.00;;;3.70;99.90;;;;;;5045556;28;20025;-33
2022/02/21 08:45:03;;;;;;;0.90;0.90;;;3.70;99.90;;;;;;5047335;28;20043;-33
2022/02/21 08:47:29;;;;;;;1.90;0.85;;;3.70;99.90;;;;;;5048208;28;20032;-33
2022/02/21 08:49:55;;;;;;;1.67;1.00;;;3.70;99.90;;;;;;5047359;28;20040;-32
2022/02/21 08:52:20;;;;;;;3.00;1.13;;;3.70;99.90;;;;;;5048474;28;20064;-34
2022/02/21 08:54:46;;;;;;;2.00;1.02;;;3.80;99.90;;;;;;5049543;28;20489;-33
2022/02/21 08:57:12;;;;;;;1.98;1.10;;;3.70;99.90;;;;;;5042636;28;20033;-33
2022/02/21 08:59:38;;;;;;;2.95;1.75;;;3.70;99.90;;;;;;5050540;28;20067;-33
2022/02/21 09:02:03;;;;;;;2.85;1.20;;;3.80;99.90;;;;;;5049803;28;20073;-33
2022/02/21 09:04:29;;;;;;;3.33;1.17;;;3.80;99.90;;;;;;5050921;28;20025;-33
2022/02/21 09:06:55;;;;;;;2.05;1.20;;;3.80;99.90;;;;;;5051275;28;20033;-33
2022/02/21 09:09:24;;;;;;;0.80;0.80;;;3.80;99.90;;;;;;5050094;28;20060;-33
2022/02/21 09:11:50;;;;;;;2.38;1.23;;;3.80;99.90;;;;;;5051975;28;20409;-32
2022/02/21 09:14:17;;;;;;;4.07;1.10;;;3.80;99.90;;;;;;5054879;28;20444;-33
2022/02/21 09:16:43;;;;;;;3.25;1.33;;;3.80;99.90;;;;;;5053598;28;20036;-32
2022/02/21 09:19:09;;;;;;;1.23;0.70;;;3.80;99.90;;;;;;5049552;28;20388;-33
2022/02/21 09:21:34;;;;;;;3.70;1.73;;;3.80;99.90;;;;;;5053863;28;20036;-33
2022/02/21 09:24:00;;;;;;;0.80;0.80;;;3.80;99.90;;;;;;5055268;28;20024;-33
2022/02/21 09:26:27;;;;;;;1.65;1.27;;;3.80;99.90;;;;;;5048793;28;20458;-33
2022/02/21 09:28:55;;;;;;;4.65;1.27;;;3.80;99.90;;;;;;5055433;28;20036;-33
2022/02/21 09:31:21;;;;;;;3.30;1.30;;;3.80;99.90;;;;;;5054760;28;20033;-33
2022/02/21 09:33:46;;;;;;;1.75;1.30;;;3.90;99.90;;;;;;5050119;28;20634;-34
2022/02/21 09:36:12;;;;;;;1.63;1.10;;;3.90;99.90;;;;;;5056320;28;20495;-33
2022/02/21 09:38:38;;;;;;;2.22;1.05;;;4.00;99.90;;;;;;5050020;28;20477;-33
2022/02/21 09:41:04;;;;;;;2.47;1.35;;;4.00;99.90;;;;;;5059205;28;20032;-34
2022/02/21 09:43:30;;;;;;;0.95;0.95;;;4.00;99.90;;;;;;5050361;28;20109;-33
2022/02/21 09:46:07;;;;;;;1.40;1.10;;;4.10;99.90;;;;;;5057417;28;20128;-33
2022/02/21 09:48:36;;;;;;;3.50;1.40;;;4.10;99.90;;;;;;5050340;28;20033;-31
2022/02/21 09:51:02;;;;;;;1.73;1.00;;;4.00;99.90;;;;;;5050609;28;20028;-31
2022/02/21 09:53:30;;;;;;;1.55;0.68;;;4.00;99.90;;;;;;5053667;28;20025;-32
2022/02/21 09:55:56;;;;;;;4.50;1.40;;;4.00;99.90;;;;;;5050835;28;20489;-32
2022/02/21 09:58:23;;;;;;;1.67;1.00;;;4.00;99.90;;;;;;5054857;28;20032;-32
2022/02/21 10:00:49;;;;;;;1.70;1.10;;;4.10;99.90;;;;;;5053490;28;20457;-32
2022/02/21 10:03:36;;;;;;;1.50;1.27;;;4.20;99.90;;;;;;5048011;28;20021;-32
2022/02/21 10:06:24;;;;;;;2.15;1.58;;;4.30;99.90;;;;;;5049571;28;20021;-32
2022/02/21 10:09:09;;;;;;;1.00;1.00;;;4.40;99.90;;;;;;5052323;28;20500;-31
2022/02/21 10:11:40;;;;;;;2.65;1.40;;;4.70;99.90;;;;;;5055658;28;20032;-31
2022/02/21 10:14:32;;;;;;;2.35;1.65;;;4.80;99.90;;;;;;5051361;28;20028;-31
2022/02/21 10:17:01;;;;;;;1.63;0.95;;;4.80;99.90;;;;;;5048426;28;20037;-32
2022/02/21 10:19:30;;;;;;;1.88;1.20;;;4.70;99.90;;;;;;5048743;28;20028;-31
2022/02/21 10:22:17;;;;;;;1.25;1.08;;;4.80;99.90;;;;;;5053275;28;20472;-32
2022/02/21 10:24:50;;;;;;;1.77;0.80;;;5.10;99.90;;;;;;5052321;28;20106;-32
2022/02/21 10:27:24;;;;;;;1.00;0.90;;;5.20;99.90;;;;;;5051776;28;20041;-31
2022/02/21 10:29:55;;;;;;;3.30;1.60;;;5.20;99.90;;;;;;5050382;28;20588;-32
2022/02/21 10:32:29;;;;;;;1.25;1.10;;;5.20;99.90;;;;;;5047582;28;20040;-32
2022/02/21 10:35:08;;;;;;;3.95;1.70;;;5.20;99.90;;;;;;5049936;28;20108;-32
2022/02/21 10:37:44;;;;;;;5.60;1.80;;;5.10;99.90;;;;;;5049921;28;20029;-32
2022/02/21 10:40:11;;;;;;;3.03;1.50;;;5.30;99.90;;;;;;5049847;28;20035;-32
2022/02/21 10:42:37;;;;;;;2.88;1.23;;;5.10;99.90;;;;;;5053632;28;20422;-32
2022/02/21 10:45:16;;;;;;;3.53;1.30;;;5.30;99.90;;;;;;5047719;28;20036;-32
2022/02/21 10:48:09;;;;;;;5.78;1.50;;;5.50;99.90;;;;;;5049945;28;20029;-31
2022/02/21 10:50:54;;;;;;;3.10;0.93;;;5.80;99.90;;;;;;5045911;28;20470;-32
2022/02/21 10:53:23;;;;;;;1.30;1.13;;;5.90;99.90;;;;;;5050818;28;20028;-32
2022/02/21 10:55:53;;;;;;;3.75;1.50;;;6.10;99.90;;;;;;5048502;28;20107;-31
2022/02/21 10:58:23;;;;;;;2.28;1.42;;;6.20;99.90;;;;;;5051930;28;20069;-32
2022/02/21 11:00:50;;;;;;;2.20;1.40;;;6.00;99.90;;;;;;5053340;28;20389;-31
2022/02/21 11:03:26;;;;;;;2.53;1.42;;;6.00;99.90;;;;;;5047716;28;20029;-32
2022/02/21 11:05:55;;;;;;;5.82;2.03;;;5.90;99.90;;;;;;5047298;28;20028;-32
2022/02/21 11:08:21;;;;;;;5.35;1.73;;;5.70;99.20;;;;;;5050066;28;20031;-31
2022/02/21 11:11:02;;;;;;;3.17;1.25;;;5.80;97.90;;;;;;5048618;28;20028;-32
2022/02/21 11:13:29;;;;;;;3.40;1.40;;;5.80;99.90;;;;;;5048983;28;20018;-32
2022/02/21 11:15:54;;;;;;;4.47;1.80;;;5.90;99.90;;;;;;5056587;28;20521;-32
2022/02/21 11:18:21;;;;;;;2.22;0.95;;;5.80;99.90;;;;;;5048350;28;20104;-32
2022/02/21 11:20:47;;;;;;;4.80;1.60;;;5.90;99.90;;;;;;5046493;28;20085;-32
2022/02/21 11:23:13;;;;;;;3.20;1.20;;;6.00;99.90;;;;;;5049393;28;20487;-32
2022/02/21 11:25:47;;;;;;;3.53;0.88;;;5.90;99.90;;;;;;5049391;28;20142;-32
2022/02/21 11:28:16;;;;;;;4.05;1.40;;;5.80;99.90;;;;;;5047774;28;20102;-31
2022/02/21 11:30:43;;;;;;;3.15;1.40;;;5.80;99.90;;;;;;5048152;28;20124;-32
2022/02/21 11:33:12;;;;;;;5.25;1.77;;;5.80;99.90;;;;;;5050448;28;20028;-32
2022/02/21 11:35:44;;;;;;;;;;;5.80;99.90;;;;;;5052399;28;20060;-32
2022/02/21 11:38:17;;;;;;;4.10;1.27;;;5.60;99.90;;;;;;5048146;28;19916;-32
2022/02/21 11:40:52;;;;;;;2.17;1.25;;;5.60;99.90;;;;;;5049249;28;20029;-32
2022/02/21 11:43:32;;;;;;;2.70;1.60;;;6.00;99.90;;;;;;5050495;28;20417;-31
2022/02/21 11:46:02;;;;;;;5.03;1.60;;;6.00;99.90;;;;;;5048201;28;20067;-31
2022/02/21 11:49:05;;;;;;;3.13;1.45;;;6.20;99.90;;;;;;5050031;28;20021;-32
2022/02/21 11:51:36;;;;;;;5.45;2.22;;;6.30;99.10;;;;;;5049554;28;20029;-31
2022/02/21 11:54:11;;;;;;;3.42;1.40;;;6.50;98.20;;;;;;5047872;28;20037;-33
2022/02/21 11:56:49;;;;;;;5.00;2.08;;;6.50;98.40;;;;;;5050218;28;20029;-32
2022/02/21 11:59:25;;;;;;;4.35;1.67;;;6.30;97.90;;;;;;5052283;28;20492;-31
2022/02/21 12:02:13;;;;;;;5.10;1.70;;;6.30;97.70;;;;;;5044931;28;20060;-31
2022/02/21 12:04:56;;;;;;;3.83;1.05;;;6.50;95.40;;;;;;5045510;28;20113;-31
2022/02/21 12:07:37;;;;;;;3.13;1.58;;;6.70;99.20;;;;;;5047870;28;20440;-31
2022/02/21 12:10:22;;;;;;;3.45;1.70;;;6.80;99.90;;;;;;5049236;28;20051;-31
2022/02/21 12:12:49;;;;;;;4.13;1.30;;;6.70;95.60;;;;;;5051502;28;20489;-31
2022/02/21 12:15:15;;;;;;;2.55;1.25;;;6.80;97.50;;;;;;5053589;28;20143;-33
2022/02/21 12:17:41;;;;;;;5.07;1.23;;;7.20;98.30;;;;;;5043550;28;20171;-31
2022/02/21 12:20:27;;;;;;;4.55;1.50;;;7.20;98.00;;;;;;5047539;28;20029;-32
2022/02/21 12:23:11;;;;;;;3.10;1.42;;;7.20;97.50;;;;;;5046217;28;20048;-31
2022/02/21 12:25:40;;;;;;;2.28;1.10;;;7.20;95.80;;;;;;5050739;28;20133;-31
2022/02/21 12:28:13;;;;;;;4.97;1.30;;;7.10;99.10;;;;;;5048747;28;20076;-31
2022/02/21 12:30:50;;;;;;;4.63;1.58;;;7.10;98.40;;;;;;5050113;28;20044;-31
2022/02/21 12:33:31;;;;;;;3.93;1.70;;;7.00;99.30;;;;;;5048598;28;20032;-32
2022/02/21 12:36:01;;;;;;;2.60;1.30;;;7.10;96.90;;;;;;5049126;28;20426;-31
2022/02/21 12:38:29;;;;;;;4.40;1.30;;;7.20;98.50;;;;;;5052319;28;20389;-32
2022/02/21 12:41:05;;;;;;;5.00;1.90;;;6.90;96.90;;;;;;5048735;28;20716;-31
2022/02/21 12:43:53;;;;;;;3.15;1.40;;;7.10;99.70;;;;;;5050762;28;20028;-31
2022/02/21 12:46:41;;;;;;;8.65;2.15;;;7.10;98.20;;;;;;5046457;28;20016;-31
2022/02/21 12:49:29;;;;;;;5.22;1.15;;;6.70;97.90;;;;;;5044931;28;20178;-32
2022/02/21 12:52:14;;;;;;;2.60;0.93;;;6.60;99.90;;;;;;5046052;28;20112;-31
2022/02/21 12:54:48;;;;;;;3.65;1.20;;;6.10;99.90;;;;;;5044616;28;20032;-31
2022/02/21 12:57:16;;;;;;;4.25;1.20;;;5.30;99.90;;;;;;5051172;28;20032;-32
2022/02/21 12:59:42;;;;;;;7.80;1.50;;;4.70;99.90;;;;;;5049377;28;20140;-31
2022/02/21 13:02:11;;;;;;;1.98;1.02;;;5.00;99.90;;;;;;5043843;28;20035;-31